Springdale, Canada
Current Conditions -  °F | °C
As of 6:26 AM on Thursday 27 Nov 2014 (Local Time) from CYDF Reporting Station
Light Snow Light Snow  
Wind Chill: 21°   Ceiling: 400
Heat Index: 28°   Visibility: 1mi
Dew Point: 28°   Wind: 7mph
Humidity: 100%   Direction: 30°NNE
Pressure: 30.01"   Gusts: NA
Location:  49.48°N, 56.1°W
Report Text: CYDF 270926Z 03006KT 1SM -SN VV004 M02/M02 A3001 RMK SN8 SLP163
Loading
Personal Weather Stations






























Interactive Weather Map New forecast layout! Learn more

10-Day Weather Forecast

Advertisements
Track Severe Weather on mobile